sensor_id;sensor_type;location;lat;lon;timestamp;P1;durP1;ratioP1;P2;durP2;ratioP2
58208;SDS011;44006;52.028;4.696;2022-09-06T00:02:18;3.72;;;1.63;;
58208;SDS011;44006;52.028;4.696;2022-09-06T00:04:44;2.03;;;1.42;;
58208;SDS011;44006;52.028;4.696;2022-09-06T00:07:09;3.70;;;1.60;;
58208;SDS011;44006;52.028;4.696;2022-09-06T00:09:34;3.70;;;2.15;;
58208;SDS011;44006;52.028;4.696;2022-09-06T00:11:59;3.42;;;2.05;;
58208;SDS011;44006;52.028;4.696;2022-09-06T00:14:25;3.00;;;2.05;;
58208;SDS011;44006;52.028;4.696;2022-09-06T00:16:51;3.40;;;2.20;;
58208;SDS011;44006;52.028;4.696;2022-09-06T00:19:17;4.72;;;2.20;;
58208;SDS011;44006;52.028;4.696;2022-09-06T00:21:42;3.60;;;2.45;;
58208;SDS011;44006;52.028;4.696;2022-09-06T00:24:07;3.78;;;2.10;;
58208;SDS011;44006;52.028;4.696;2022-09-06T00:26:34;2.80;;;2.33;;
58208;SDS011;44006;52.028;4.696;2022-09-06T00:28:59;4.13;;;2.00;;
58208;SDS011;44006;52.028;4.696;2022-09-06T00:31:25;2.43;;;1.93;;
58208;SDS011;44006;52.028;4.696;2022-09-06T00:33:50;2.97;;;2.25;;
58208;SDS011;44006;52.028;4.696;2022-09-06T00:36:16;3.05;;;2.05;;
58208;SDS011;44006;52.028;4.696;2022-09-06T00:38:42;2.63;;;1.70;;
58208;SDS011;44006;52.028;4.696;2022-09-06T00:41:08;5.70;;;1.95;;
58208;SDS011;44006;52.028;4.696;2022-09-06T00:43:34;3.25;;;2.10;;
58208;SDS011;44006;52.028;4.696;2022-09-06T00:45:59;2.13;;;1.42;;
58208;SDS011;44006;52.028;4.696;2022-09-06T00:48:25;3.45;;;1.75;;
58208;SDS011;44006;52.028;4.696;2022-09-06T00:50:53;3.50;;;1.88;;
58208;SDS011;44006;52.028;4.696;2022-09-06T00:53:19;3.13;;;1.55;;
58208;SDS011;44006;52.028;4.696;2022-09-06T00:55:45;2.63;;;1.70;;
58208;SDS011;44006;52.028;4.696;2022-09-06T00:58:10;3.30;;;1.95;;
58208;SDS011;44006;52.028;4.696;2022-09-06T01:00:36;4.93;;;2.38;;
58208;SDS011;44006;52.028;4.696;2022-09-06T01:03:02;3.58;;;1.95;;
58208;SDS011;44006;52.028;4.696;2022-09-06T01:05:38;4.25;;;2.40;;
58208;SDS011;44006;52.028;4.696;2022-09-06T01:15:53;4.32;;;2.75;;
58208;SDS011;44006;52.028;4.696;2022-09-06T01:33:45;7.93;;;3.65;;
58208;SDS011;44006;52.028;4.696;2022-09-06T01:36:13;6.38;;;3.88;;
58208;SDS011;44006;52.028;4.696;2022-09-06T01:38:40;5.57;;;3.58;;
58208;SDS011;44006;52.028;4.696;2022-09-06T01:41:05;5.28;;;3.55;;
58208;SDS011;44006;52.028;4.696;2022-09-06T01:43:32;6.10;;;3.58;;
58208;SDS011;44006;52.028;4.696;2022-09-06T01:53:48;9.30;;;4.15;;
58208;SDS011;44006;52.028;4.696;2022-09-06T01:56:21;8.07;;;4.17;;
58208;SDS011;44006;52.028;4.696;2022-09-06T02:06:39;14.90;;;4.68;;
58208;SDS011;44006;52.028;4.696;2022-09-06T02:09:07;6.13;;;4.65;;
58208;SDS011;44006;52.028;4.696;2022-09-06T02:11:38;8.73;;;4.57;;
58208;SDS011;44006;52.028;4.696;2022-09-06T02:14:08;6.35;;;4.85;;
58208;SDS011;44006;52.028;4.696;2022-09-06T02:16:34;5.50;;;4.75;;
58208;SDS011;44006;52.028;4.696;2022-09-06T02:19:05;7.15;;;4.97;;
58208;SDS011;44006;52.028;4.696;2022-09-06T02:21:32;6.20;;;4.45;;
58208;SDS011;44006;52.028;4.696;2022-09-06T02:23:59;5.93;;;4.43;;
58208;SDS011;44006;52.028;4.696;2022-09-06T02:26:26;6.72;;;4.75;;
58208;SDS011;44006;52.028;4.696;2022-09-06T02:28:53;7.28;;;4.43;;
58208;SDS011;44006;52.028;4.696;2022-09-06T02:31:20;7.13;;;5.10;;
58208;SDS011;44006;52.028;4.696;2022-09-06T02:33:46;9.20;;;5.22;;
58208;SDS011;44006;52.028;4.696;2022-09-06T02:36:12;6.97;;;5.47;;
58208;SDS011;44006;52.028;4.696;2022-09-06T02:38:40;9.65;;;7.03;;
58208;SDS011;44006;52.028;4.696;2022-09-06T02:41:06;10.10;;;5.72;;
58208;SDS011;44006;52.028;4.696;2022-09-06T02:43:31;9.60;;;6.50;;
58208;SDS011;44006;52.028;4.696;2022-09-06T02:45:57;7.15;;;5.93;;
58208;SDS011;44006;52.028;4.696;2022-09-06T02:48:22;9.35;;;6.10;;
58208;SDS011;44006;52.028;4.696;2022-09-06T02:50:48;8.02;;;5.68;;
58208;SDS011;44006;52.028;4.696;2022-09-06T02:53:13;9.68;;;6.90;;
58208;SDS011;44006;52.028;4.696;2022-09-06T02:55:39;13.77;;;6.97;;
58208;SDS011;44006;52.028;4.696;2022-09-06T02:58:04;7.65;;;5.75;;
58208;SDS011;44006;52.028;4.696;2022-09-06T03:00:30;7.85;;;6.35;;
58208;SDS011;44006;52.028;4.696;2022-09-06T03:02:56;9.18;;;7.57;;
58208;SDS011;44006;52.028;4.696;2022-09-06T03:05:22;10.48;;;6.55;;
58208;SDS011;44006;52.028;4.696;2022-09-06T03:07:48;10.80;;;7.30;;
58208;SDS011;44006;52.028;4.696;2022-09-06T03:10:13;10.07;;;6.95;;
58208;SDS011;44006;52.028;4.696;2022-09-06T03:12:41;8.50;;;6.10;;
58208;SDS011;44006;52.028;4.696;2022-09-06T03:15:06;9.15;;;6.97;;
58208;SDS011;44006;52.028;4.696;2022-09-06T03:17:31;7.85;;;6.50;;
58208;SDS011;44006;52.028;4.696;2022-09-06T03:19:57;7.80;;;6.45;;
58208;SDS011;44006;52.028;4.696;2022-09-06T03:22:22;7.77;;;5.83;;
58208;SDS011;44006;52.028;4.696;2022-09-06T03:24:47;11.07;;;6.70;;
58208;SDS011;44006;52.028;4.696;2022-09-06T03:27:13;9.00;;;7.18;;
58208;SDS011;44006;52.028;4.696;2022-09-06T03:29:38;7.82;;;6.28;;
58208;SDS011;44006;52.028;4.696;2022-09-06T03:32:03;9.98;;;6.38;;
58208;SDS011;44006;52.028;4.696;2022-09-06T03:34:30;9.38;;;7.72;;
58208;SDS011;44006;52.028;4.696;2022-09-06T03:36:55;10.30;;;6.90;;
58208;SDS011;44006;52.028;4.696;2022-09-06T03:39:20;10.00;;;7.80;;
58208;SDS011;44006;52.028;4.696;2022-09-06T03:41:46;10.25;;;6.78;;
58208;SDS011;44006;52.028;4.696;2022-09-06T03:44:11;13.52;;;8.63;;
58208;SDS011;44006;52.028;4.696;2022-09-06T03:46:36;10.70;;;8.70;;
58208;SDS011;44006;52.028;4.696;2022-09-06T03:49:02;11.15;;;8.70;;
58208;SDS011;44006;52.028;4.696;2022-09-06T03:51:28;12.48;;;8.45;;
58208;SDS011;44006;52.028;4.696;2022-09-06T03:53:53;10.25;;;7.70;;
58208;SDS011;44006;52.028;4.696;2022-09-06T03:56:19;11.82;;;8.85;;
58208;SDS011;44006;52.028;4.696;2022-09-06T03:58:45;10.10;;;7.85;;
58208;SDS011;44006;52.028;4.696;2022-09-06T04:01:11;11.75;;;8.07;;
58208;SDS011;44006;52.028;4.696;2022-09-06T04:03:36;10.25;;;8.70;;
58208;SDS011;44006;52.028;4.696;2022-09-06T04:06:06;12.13;;;9.38;;
58208;SDS011;44006;52.028;4.696;2022-09-06T04:17:33;13.38;;;8.45;;
58208;SDS011;44006;52.028;4.696;2022-09-06T04:22:53;10.95;;;8.23;;
58208;SDS011;44006;52.028;4.696;2022-09-06T04:25:25;12.85;;;8.93;;
58208;SDS011;44006;52.028;4.696;2022-09-06T04:28:02;10.70;;;8.50;;
58208;SDS011;44006;52.028;4.696;2022-09-06T04:33:51;13.02;;;8.98;;
58208;SDS011;44006;52.028;4.696;2022-09-06T04:42:26;11.82;;;8.70;;
58208;SDS011;44006;52.028;4.696;2022-09-06T04:44:52;12.25;;;8.70;;
58208;SDS011;44006;52.028;4.696;2022-09-06T04:47:21;11.10;;;9.50;;
58208;SDS011;44006;52.028;4.696;2022-09-06T04:52:21;13.65;;;10.10;;
58208;SDS011;44006;52.028;4.696;2022-09-06T04:54:46;13.13;;;9.68;;
58208;SDS011;44006;52.028;4.696;2022-09-06T04:57:16;13.45;;;9.93;;
58208;SDS011;44006;52.028;4.696;2022-09-06T04:59:45;15.68;;;10.00;;
58208;SDS011;44006;52.028;4.696;2022-09-06T05:02:10;12.50;;;9.60;;
58208;SDS011;44006;52.028;4.696;2022-09-06T05:04:36;11.95;;;9.38;;
58208;SDS011;44006;52.028;4.696;2022-09-06T05:07:02;9.98;;;8.63;;
58208;SDS011;44006;52.028;4.696;2022-09-06T05:09:28;10.85;;;9.05;;
58208;SDS011;44006;52.028;4.696;2022-09-06T05:11:54;10.73;;;8.77;;
58208;SDS011;44006;52.028;4.696;2022-09-06T05:14:20;14.10;;;8.98;;
58208;SDS011;44006;52.028;4.696;2022-09-06T05:16:46;11.68;;;9.05;;
58208;SDS011;44006;52.028;4.696;2022-09-06T05:19:12;11.75;;;9.40;;
58208;SDS011;44006;52.028;4.696;2022-09-06T05:21:37;11.93;;;8.95;;
58208;SDS011;44006;52.028;4.696;2022-09-06T05:24:02;13.30;;;9.20;;
58208;SDS011;44006;52.028;4.696;2022-09-06T05:26:27;12.88;;;9.23;;
58208;SDS011;44006;52.028;4.696;2022-09-06T05:28:53;14.07;;;10.60;;
58208;SDS011;44006;52.028;4.696;2022-09-06T05:33:50;11.90;;;9.27;;
58208;SDS011;44006;52.028;4.696;2022-09-06T05:36:18;12.02;;;9.70;;
58208;SDS011;44006;52.028;4.696;2022-09-06T05:38:43;10.88;;;8.52;;
58208;SDS011;44006;52.028;4.696;2022-09-06T05:41:08;11.45;;;10.23;;
58208;SDS011;44006;52.028;4.696;2022-09-06T05:43:34;12.13;;;9.75;;
58208;SDS011;44006;52.028;4.696;2022-09-06T05:45:59;11.43;;;9.67;;
58208;SDS011;44006;52.028;4.696;2022-09-06T05:48:24;14.35;;;10.18;;
58208;SDS011;44006;52.028;4.696;2022-09-06T05:51:02;11.13;;;9.75;;
58208;SDS011;44006;52.028;4.696;2022-09-06T05:55:59;13.05;;;10.15;;
58208;SDS011;44006;52.028;4.696;2022-09-06T05:58:25;12.05;;;9.88;;
58208;SDS011;44006;52.028;4.696;2022-09-06T06:00:50;18.88;;;10.80;;
58208;SDS011;44006;52.028;4.696;2022-09-06T06:03:15;12.70;;;10.02;;
58208;SDS011;44006;52.028;4.696;2022-09-06T06:05:45;13.63;;;9.35;;
58208;SDS011;44006;52.028;4.696;2022-09-06T06:08:10;12.38;;;9.80;;
58208;SDS011;44006;52.028;4.696;2022-09-06T06:10:35;17.00;;;10.13;;
58208;SDS011;44006;52.028;4.696;2022-09-06T06:13:03;12.30;;;9.90;;
58208;SDS011;44006;52.028;4.696;2022-09-06T06:15:28;13.15;;;9.70;;
58208;SDS011;44006;52.028;4.696;2022-09-06T06:17:53;12.32;;;9.25;;
58208;SDS011;44006;52.028;4.696;2022-09-06T06:20:19;12.60;;;9.13;;
58208;SDS011;44006;52.028;4.696;2022-09-06T06:22:45;15.38;;;10.75;;
58208;SDS011;44006;52.028;4.696;2022-09-06T06:25:10;12.90;;;9.27;;
58208;SDS011;44006;52.028;4.696;2022-09-06T06:27:36;15.90;;;9.93;;
58208;SDS011;44006;52.028;4.696;2022-09-06T06:30:02;14.07;;;9.77;;
58208;SDS011;44006;52.028;4.696;2022-09-06T06:32:27;15.20;;;10.45;;
58208;SDS011;44006;52.028;4.696;2022-09-06T06:34:52;13.77;;;10.70;;
58208;SDS011;44006;52.028;4.696;2022-09-06T06:37:18;14.07;;;10.50;;
58208;SDS011;44006;52.028;4.696;2022-09-06T06:39:43;13.30;;;10.38;;
58208;SDS011;44006;52.028;4.696;2022-09-06T06:42:09;15.50;;;10.02;;
58208;SDS011;44006;52.028;4.696;2022-09-06T06:44:34;11.55;;;9.30;;
58208;SDS011;44006;52.028;4.696;2022-09-06T06:46:59;12.85;;;11.15;;
58208;SDS011;44006;52.028;4.696;2022-09-06T06:49:26;13.40;;;10.77;;
58208;SDS011;44006;52.028;4.696;2022-09-06T06:51:53;15.32;;;10.18;;
58208;SDS011;44006;52.028;4.696;2022-09-06T06:54:18;11.93;;;10.32;;
58208;SDS011;44006;52.028;4.696;2022-09-06T06:56:43;11.52;;;9.95;;
58208;SDS011;44006;52.028;4.696;2022-09-06T06:59:09;11.85;;;10.50;;
58208;SDS011;44006;52.028;4.696;2022-09-06T07:01:35;16.08;;;11.55;;
58208;SDS011;44006;52.028;4.696;2022-09-06T07:04:00;14.55;;;10.88;;
58208;SDS011;44006;52.028;4.696;2022-09-06T07:06:26;16.17;;;10.25;;
58208;SDS011;44006;52.028;4.696;2022-09-06T07:08:55;12.60;;;9.80;;
58208;SDS011;44006;52.028;4.696;2022-09-06T07:11:21;16.13;;;9.88;;
58208;SDS011;44006;52.028;4.696;2022-09-06T07:13:47;13.73;;;9.40;;
58208;SDS011;44006;52.028;4.696;2022-09-06T07:16:13;13.65;;;9.60;;
58208;SDS011;44006;52.028;4.696;2022-09-06T07:18:39;15.98;;;10.20;;
58208;SDS011;44006;52.028;4.696;2022-09-06T07:21:09;13.70;;;9.98;;
58208;SDS011;44006;52.028;4.696;2022-09-06T07:23:35;12.85;;;10.52;;
58208;SDS011;44006;52.028;4.696;2022-09-06T07:26:01;13.15;;;10.63;;
58208;SDS011;44006;52.028;4.696;2022-09-06T07:28:26;11.20;;;10.10;;
58208;SDS011;44006;52.028;4.696;2022-09-06T07:30:52;14.80;;;10.23;;
58208;SDS011;44006;52.028;4.696;2022-09-06T07:33:17;13.20;;;9.57;;
58208;SDS011;44006;52.028;4.696;2022-09-06T07:35:52;11.65;;;10.35;;
58208;SDS011;44006;52.028;4.696;2022-09-06T07:38:18;13.35;;;10.27;;
58208;SDS011;44006;52.028;4.696;2022-09-06T07:40:43;13.38;;;9.45;;
58208;SDS011;44006;52.028;4.696;2022-09-06T07:43:16;13.70;;;9.70;;
58208;SDS011;44006;52.028;4.696;2022-09-06T07:45:41;16.73;;;11.60;;
58208;SDS011;44006;52.028;4.696;2022-09-06T07:48:07;13.85;;;11.10;;
58208;SDS011;44006;52.028;4.696;2022-09-06T07:50:32;14.00;;;10.95;;
58208;SDS011;44006;52.028;4.696;2022-09-06T07:53:04;13.82;;;10.85;;
58208;SDS011;44006;52.028;4.696;2022-09-06T07:55:29;15.27;;;11.50;;
58208;SDS011;44006;52.028;4.696;2022-09-06T07:57:54;12.48;;;11.05;;
58208;SDS011;44006;52.028;4.696;2022-09-06T08:00:20;12.68;;;10.60;;
58208;SDS011;44006;52.028;4.696;2022-09-06T08:02:45;14.50;;;11.07;;
58208;SDS011;44006;52.028;4.696;2022-09-06T08:05:10;14.13;;;11.30;;
58208;SDS011;44006;52.028;4.696;2022-09-06T08:07:35;15.20;;;11.93;;
58208;SDS011;44006;52.028;4.696;2022-09-06T08:10:00;17.47;;;11.33;;
58208;SDS011;44006;52.028;4.696;2022-09-06T08:12:26;13.88;;;10.73;;
58208;SDS011;44006;52.028;4.696;2022-09-06T08:14:53;15.55;;;12.38;;
58208;SDS011;44006;52.028;4.696;2022-09-06T08:17:19;14.88;;;11.57;;
58208;SDS011;44006;52.028;4.696;2022-09-06T08:19:44;14.82;;;10.18;;
58208;SDS011;44006;52.028;4.696;2022-09-06T08:22:09;12.95;;;11.20;;
58208;SDS011;44006;52.028;4.696;2022-09-06T08:24:35;11.93;;;10.48;;
58208;SDS011;44006;52.028;4.696;2022-09-06T08:27:00;13.82;;;10.93;;
58208;SDS011;44006;52.028;4.696;2022-09-06T08:29:26;15.60;;;10.93;;
58208;SDS011;44006;52.028;4.696;2022-09-06T08:31:51;17.05;;;11.00;;
58208;SDS011;44006;52.028;4.696;2022-09-06T08:34:16;13.15;;;9.90;;
58208;SDS011;44006;52.028;4.696;2022-09-06T08:36:42;13.07;;;10.38;;
58208;SDS011;44006;52.028;4.696;2022-09-06T08:39:08;12.40;;;9.45;;
58208;SDS011;44006;52.028;4.696;2022-09-06T08:47:08;11.85;;;10.00;;
58208;SDS011;44006;52.028;4.696;2022-09-06T08:49:35;11.18;;;9.40;;
58208;SDS011;44006;52.028;4.696;2022-09-06T08:52:24;11.45;;;9.38;;
58208;SDS011;44006;52.028;4.696;2022-09-06T09:00:00;12.07;;;8.68;;
58208;SDS011;44006;52.028;4.696;2022-09-06T09:02:25;12.23;;;9.00;;
58208;SDS011;44006;52.028;4.696;2022-09-06T09:04:53;11.00;;;9.05;;
58208;SDS011;44006;52.028;4.696;2022-09-06T09:09:45;11.77;;;8.47;;
58208;SDS011;44006;52.028;4.696;2022-09-06T09:12:10;10.52;;;8.23;;
58208;SDS011;44006;52.028;4.696;2022-09-06T09:14:40;10.40;;;7.82;;
58208;SDS011;44006;52.028;4.696;2022-09-06T09:17:14;11.70;;;7.57;;
58208;SDS011;44006;52.028;4.696;2022-09-06T09:19:40;8.68;;;6.70;;
58208;SDS011;44006;52.028;4.696;2022-09-06T09:22:06;8.63;;;6.30;;
58208;SDS011;44006;52.028;4.696;2022-09-06T09:24:32;10.07;;;6.22;;
58208;SDS011;44006;52.028;4.696;2022-09-06T09:27:02;12.48;;;7.35;;
58208;SDS011;44006;52.028;4.696;2022-09-06T09:29:29;12.02;;;6.82;;
58208;SDS011;44006;52.028;4.696;2022-09-06T09:31:55;8.52;;;6.65;;
58208;SDS011;44006;52.028;4.696;2022-09-06T09:39:36;8.70;;;6.93;;
58208;SDS011;44006;52.028;4.696;2022-09-06T09:42:02;8.70;;;6.75;;
58208;SDS011;44006;52.028;4.696;2022-09-06T09:44:27;10.00;;;6.47;;
58208;SDS011;44006;52.028;4.696;2022-09-06T09:46:53;8.45;;;6.40;;
58208;SDS011;44006;52.028;4.696;2022-09-06T09:52:12;8.50;;;6.05;;
58208;SDS011;44006;52.028;4.696;2022-09-06T09:54:39;7.28;;;6.20;;
58208;SDS011;44006;52.028;4.696;2022-09-06T09:57:06;11.55;;;7.47;;
58208;SDS011;44006;52.028;4.696;2022-09-06T10:02:00;9.40;;;6.72;;
58208;SDS011;44006;52.028;4.696;2022-09-06T10:04:46;7.25;;;6.00;;
58208;SDS011;44006;52.028;4.696;2022-09-06T10:07:17;9.90;;;6.70;;
58208;SDS011;44006;52.028;4.696;2022-09-06T10:09:56;13.18;;;7.40;;
58208;SDS011;44006;52.028;4.696;2022-09-06T10:12:30;7.47;;;6.20;;
58208;SDS011;44006;52.028;4.696;2022-09-06T10:14:55;8.57;;;6.05;;
58208;SDS011;44006;52.028;4.696;2022-09-06T10:19:53;12.35;;;7.20;;
58208;SDS011;44006;52.028;4.696;2022-09-06T10:22:27;7.80;;;6.22;;
58208;SDS011;44006;52.028;4.696;2022-09-06T10:27:37;9.00;;;6.18;;
58208;SDS011;44006;52.028;4.696;2022-09-06T10:30:07;12.05;;;6.85;;
58208;SDS011;44006;52.028;4.696;2022-09-06T10:35:13;9.30;;;6.82;;
58208;SDS011;44006;52.028;4.696;2022-09-06T10:42:52;8.43;;;7.00;;
58208;SDS011;44006;52.028;4.696;2022-09-06T10:48:00;9.80;;;6.80;;
58208;SDS011;44006;52.028;4.696;2022-09-06T10:53:04;8.50;;;5.57;;
58208;SDS011;44006;52.028;4.696;2022-09-06T10:55:31;9.30;;;5.85;;
58208;SDS011;44006;52.028;4.696;2022-09-06T10:57:57;9.95;;;6.45;;
58208;SDS011;44006;52.028;4.696;2022-09-06T11:00:28;9.05;;;5.75;;
58208;SDS011;44006;52.028;4.696;2022-09-06T11:05:34;8.68;;;6.13;;
58208;SDS011;44006;52.028;4.696;2022-09-06T11:08:02;9.88;;;5.57;;
58208;SDS011;44006;52.028;4.696;2022-09-06T11:10:29;9.63;;;7.45;;
58208;SDS011;44006;52.028;4.696;2022-09-06T11:15:43;10.85;;;6.18;;
58208;SDS011;44006;52.028;4.696;2022-09-06T11:18:20;9.68;;;7.30;;
58208;SDS011;44006;52.028;4.696;2022-09-06T11:28:46;11.43;;;8.05;;
58208;SDS011;44006;52.028;4.696;2022-09-06T11:31:18;10.80;;;8.27;;
58208;SDS011;44006;52.028;4.696;2022-09-06T11:33:46;10.75;;;7.95;;
58208;SDS011;44006;52.028;4.696;2022-09-06T11:36:34;13.55;;;8.32;;
58208;SDS011;44006;52.028;4.696;2022-09-06T11:38:59;7.85;;;7.05;;
58208;SDS011;44006;52.028;4.696;2022-09-06T11:41:29;11.85;;;6.75;;
58208;SDS011;44006;52.028;4.696;2022-09-06T11:43:55;11.73;;;7.50;;
58208;SDS011;44006;52.028;4.696;2022-09-06T11:49:04;13.20;;;6.85;;
58208;SDS011;44006;52.028;4.696;2022-09-06T11:51:48;8.75;;;6.10;;
58208;SDS011;44006;52.028;4.696;2022-09-06T11:56:39;9.18;;;5.35;;
58208;SDS011;44006;52.028;4.696;2022-09-06T12:04:20;7.40;;;4.68;;
58208;SDS011;44006;52.028;4.696;2022-09-06T12:09:39;7.38;;;4.03;;
58208;SDS011;44006;52.028;4.696;2022-09-06T12:12:06;7.32;;;3.80;;
58208;SDS011;44006;52.028;4.696;2022-09-06T12:22:38;8.93;;;4.43;;
58208;SDS011;44006;52.028;4.696;2022-09-06T12:27:17;8.55;;;5.28;;
58208;SDS011;44006;52.028;4.696;2022-09-06T12:29:53;7.15;;;5.53;;
58208;SDS011;44006;52.028;4.696;2022-09-06T12:32:21;8.25;;;5.15;;
58208;SDS011;44006;52.028;4.696;2022-09-06T12:34:48;6.85;;;4.30;;
58208;SDS011;44006;52.028;4.696;2022-09-06T12:37:14;6.30;;;3.28;;
58208;SDS011;44006;52.028;4.696;2022-09-06T12:39:40;6.30;;;2.60;;
58208;SDS011;44006;52.028;4.696;2022-09-06T12:42:20;5.30;;;2.70;;
58208;SDS011;44006;52.028;4.696;2022-09-06T12:44:48;7.30;;;2.70;;
58208;SDS011;44006;52.028;4.696;2022-09-06T12:47:30;4.45;;;2.50;;
58208;SDS011;44006;52.028;4.696;2022-09-06T12:50:13;9.57;;;3.65;;
58208;SDS011;44006;52.028;4.696;2022-09-06T12:52:45;6.60;;;2.42;;
58208;SDS011;44006;52.028;4.696;2022-09-06T12:55:44;6.47;;;2.38;;
58208;SDS011;44006;52.028;4.696;2022-09-06T12:58:04;4.50;;;2.03;;
58208;SDS011;44006;52.028;4.696;2022-09-06T13:00:36;5.70;;;2.65;;
58208;SDS011;44006;52.028;4.696;2022-09-06T13:05:33;6.00;;;2.00;;
58208;SDS011;44006;52.028;4.696;2022-09-06T13:08:02;3.65;;;1.90;;
58208;SDS011;44006;52.028;4.696;2022-09-06T13:10:27;4.88;;;1.90;;
58208;SDS011;44006;52.028;4.696;2022-09-06T13:12:55;5.45;;;2.05;;
58208;SDS011;44006;52.028;4.696;2022-09-06T13:15:28;4.20;;;2.05;;
58208;SDS011;44006;52.028;4.696;2022-09-06T13:18:17;4.60;;;2.20;;
58208;SDS011;44006;52.028;4.696;2022-09-06T13:20:40;4.85;;;2.70;;
58208;SDS011;44006;52.028;4.696;2022-09-06T13:23:07;6.40;;;2.42;;
58208;SDS011;44006;52.028;4.696;2022-09-06T13:25:33;7.20;;;2.55;;
58208;SDS011;44006;52.028;4.696;2022-09-06T13:27:59;3.88;;;1.92;;
58208;SDS011;44006;52.028;4.696;2022-09-06T13:32:57;4.97;;;2.08;;
58208;SDS011;44006;52.028;4.696;2022-09-06T13:35:23;3.63;;;1.65;;
58208;SDS011;44006;52.028;4.696;2022-09-06T13:37:49;5.68;;;2.10;;
58208;SDS011;44006;52.028;4.696;2022-09-06T13:42:59;6.22;;;1.90;;
58208;SDS011;44006;52.028;4.696;2022-09-06T13:45:26;5.13;;;2.08;;
58208;SDS011;44006;52.028;4.696;2022-09-06T13:47:52;6.75;;;2.20;;
58208;SDS011;44006;52.028;4.696;2022-09-06T13:50:17;8.40;;;2.10;;
58208;SDS011;44006;52.028;4.696;2022-09-06T13:52:43;6.20;;;1.95;;
58208;SDS011;44006;52.028;4.696;2022-09-06T13:55:10;5.03;;;1.77;;
58208;SDS011;44006;52.028;4.696;2022-09-06T13:57:36;3.78;;;1.48;;
58208;SDS011;44006;52.028;4.696;2022-09-06T14:00:03;4.47;;;2.28;;
58208;SDS011;44006;52.028;4.696;2022-09-06T14:02:28;4.50;;;1.60;;
58208;SDS011;44006;52.028;4.696;2022-09-06T14:04:55;4.88;;;1.70;;
58208;SDS011;44006;52.028;4.696;2022-09-06T14:07:21;4.05;;;1.33;;
58208;SDS011;44006;52.028;4.696;2022-09-06T14:09:46;5.32;;;1.65;;
58208;SDS011;44006;52.028;4.696;2022-09-06T14:12:14;8.98;;;2.00;;
58208;SDS011;44006;52.028;4.696;2022-09-06T14:14:39;3.67;;;1.93;;
58208;SDS011;44006;52.028;4.696;2022-09-06T14:17:04;5.72;;;2.00;;
58208;SDS011;44006;52.028;4.696;2022-09-06T14:19:29;4.88;;;1.83;;
58208;SDS011;44006;52.028;4.696;2022-09-06T14:21:55;4.47;;;1.50;;
58208;SDS011;44006;52.028;4.696;2022-09-06T14:24:20;2.92;;;1.30;;
58208;SDS011;44006;52.028;4.696;2022-09-06T14:26:45;3.70;;;1.30;;
58208;SDS011;44006;52.028;4.696;2022-09-06T14:29:11;4.25;;;1.40;;
58208;SDS011;44006;52.028;4.696;2022-09-06T14:31:37;4.63;;;1.35;;
58208;SDS011;44006;52.028;4.696;2022-09-06T14:34:03;4.40;;;1.20;;
58208;SDS011;44006;52.028;4.696;2022-09-06T14:36:29;3.92;;;1.70;;
58208;SDS011;44006;52.028;4.696;2022-09-06T14:38:56;5.78;;;1.48;;
58208;SDS011;44006;52.028;4.696;2022-09-06T14:41:21;4.50;;;1.58;;
58208;SDS011;44006;52.028;4.696;2022-09-06T14:43:50;4.67;;;1.80;;
58208;SDS011;44006;52.028;4.696;2022-09-06T14:46:16;3.35;;;1.25;;
58208;SDS011;44006;52.028;4.696;2022-09-06T14:48:42;3.63;;;1.42;;
58208;SDS011;44006;52.028;4.696;2022-09-06T14:51:09;3.38;;;0.90;;
58208;SDS011;44006;52.028;4.696;2022-09-06T14:53:39;4.07;;;1.00;;
58208;SDS011;44006;52.028;4.696;2022-09-06T14:56:04;2.88;;;0.85;;
58208;SDS011;44006;52.028;4.696;2022-09-06T14:58:30;3.58;;;1.10;;
58208;SDS011;44006;52.028;4.696;2022-09-06T15:01:04;2.92;;;1.10;;
58208;SDS011;44006;52.028;4.696;2022-09-06T15:03:29;3.13;;;1.48;;
58208;SDS011;44006;52.028;4.696;2022-09-06T15:05:55;3.40;;;0.90;;
58208;SDS011;44006;52.028;4.696;2022-09-06T15:08:20;2.88;;;1.08;;
58208;SDS011;44006;52.028;4.696;2022-09-06T15:10:52;3.45;;;0.90;;
58208;SDS011;44006;52.028;4.696;2022-09-06T15:13:18;4.88;;;1.23;;
58208;SDS011;44006;52.028;4.696;2022-09-06T15:15:43;3.47;;;1.00;;
58208;SDS011;44006;52.028;4.696;2022-09-06T15:18:08;3.07;;;1.43;;
58208;SDS011;44006;52.028;4.696;2022-09-06T15:20:34;4.05;;;1.38;;
58208;SDS011;44006;52.028;4.696;2022-09-06T15:22:59;3.37;;;1.23;;
58208;SDS011;44006;52.028;4.696;2022-09-06T15:25:28;4.18;;;1.23;;
58208;SDS011;44006;52.028;4.696;2022-09-06T15:27:53;3.53;;;1.05;;
58208;SDS011;44006;52.028;4.696;2022-09-06T15:30:18;3.93;;;1.20;;
58208;SDS011;44006;52.028;4.696;2022-09-06T15:32:44;2.53;;;1.20;;
58208;SDS011;44006;52.028;4.696;2022-09-06T15:35:09;5.10;;;1.07;;
58208;SDS011;44006;52.028;4.696;2022-09-06T15:37:34;4.57;;;1.17;;
58208;SDS011;44006;52.028;4.696;2022-09-06T15:39:59;2.93;;;1.30;;
58208;SDS011;44006;52.028;4.696;2022-09-06T15:42:25;3.60;;;1.30;;
58208;SDS011;44006;52.028;4.696;2022-09-06T15:44:50;4.30;;;1.10;;
58208;SDS011;44006;52.028;4.696;2022-09-06T15:47:15;4.13;;;1.10;;
58208;SDS011;44006;52.028;4.696;2022-09-06T15:49:41;4.50;;;1.20;;
58208;SDS011;44006;52.028;4.696;2022-09-06T15:52:07;4.15;;;1.13;;
58208;SDS011;44006;52.028;4.696;2022-09-06T15:54:33;3.65;;;1.25;;
58208;SDS011;44006;52.028;4.696;2022-09-06T15:57:17;2.60;;;1.00;;
58208;SDS011;44006;52.028;4.696;2022-09-06T15:59:42;4.65;;;1.83;;
58208;SDS011;44006;52.028;4.696;2022-09-06T16:02:08;3.10;;;1.13;;
58208;SDS011;44006;52.028;4.696;2022-09-06T16:04:33;2.88;;;1.45;;
58208;SDS011;44006;52.028;4.696;2022-09-06T16:06:58;6.13;;;1.67;;
58208;SDS011;44006;52.028;4.696;2022-09-06T16:09:24;2.40;;;1.17;;
58208;SDS011;44006;52.028;4.696;2022-09-06T16:11:49;5.90;;;1.50;;
58208;SDS011;44006;52.028;4.696;2022-09-06T16:14:14;3.47;;;1.05;;
58208;SDS011;44006;52.028;4.696;2022-09-06T16:16:40;3.72;;;1.20;;
58208;SDS011;44006;52.028;4.696;2022-09-06T16:19:06;4.07;;;1.60;;
58208;SDS011;44006;52.028;4.696;2022-09-06T16:21:32;7.57;;;1.55;;
58208;SDS011;44006;52.028;4.696;2022-09-06T16:24:02;3.72;;;1.58;;
58208;SDS011;44006;52.028;4.696;2022-09-06T16:26:29;3.20;;;1.20;;
58208;SDS011;44006;52.028;4.696;2022-09-06T16:28:56;4.82;;;1.50;;
58208;SDS011;44006;52.028;4.696;2022-09-06T16:31:21;4.45;;;1.17;;
58208;SDS011;44006;52.028;4.696;2022-09-06T16:33:47;3.70;;;1.60;;
58208;SDS011;44006;52.028;4.696;2022-09-06T16:36:13;2.80;;;1.23;;
58208;SDS011;44006;52.028;4.696;2022-09-06T16:38:39;3.00;;;1.30;;
58208;SDS011;44006;52.028;4.696;2022-09-06T16:41:38;5.00;;;1.40;;
58208;SDS011;44006;52.028;4.696;2022-09-06T16:43:56;4.78;;;1.27;;
58208;SDS011;44006;52.028;4.696;2022-09-06T16:46:22;5.33;;;2.07;;
58208;SDS011;44006;52.028;4.696;2022-09-06T16:51:16;3.38;;;1.55;;
58208;SDS011;44006;52.028;4.696;2022-09-06T16:53:43;4.40;;;1.60;;
58208;SDS011;44006;52.028;4.696;2022-09-06T16:56:09;30.27;;;21.17;;
58208;SDS011;44006;52.028;4.696;2022-09-06T16:58:35;9.15;;;5.45;;
58208;SDS011;44006;52.028;4.696;2022-09-06T17:01:00;6.38;;;2.88;;
58208;SDS011;44006;52.028;4.696;2022-09-06T17:03:26;3.95;;;1.73;;
58208;SDS011;44006;52.028;4.696;2022-09-06T17:05:51;3.65;;;1.55;;
58208;SDS011;44006;52.028;4.696;2022-09-06T17:08:17;2.15;;;1.00;;
58208;SDS011;44006;52.028;4.696;2022-09-06T17:10:42;5.15;;;1.48;;
58208;SDS011;44006;52.028;4.696;2022-09-06T17:13:09;3.55;;;1.15;;
58208;SDS011;44006;52.028;4.696;2022-09-06T17:15:34;3.83;;;1.30;;
58208;SDS011;44006;52.028;4.696;2022-09-06T17:18:18;3.58;;;1.48;;